Time;durP1;ratioP1;P1;durP2;ratioP2;P2;SDS_P1;SDS_P2;PMS_P1;PMS_P2;Temp;Humidity;BMP_temperature;BMP_pressure;BME280_temperature;BME280_humidity;BME280_pressure;Samples;Min_cycle;Max_cycle;Signal;HPM_P1;HPM_P2
2023/04/30 00:00:41;;;;;;;31.52;27.85;;;4.60;99.90;;;;;;4930437;28;20071;-76
2023/04/30 00:03:08;;;;;;;44.15;30.75;;;4.50;99.90;;;;;;4941143;28;20133;-77
2023/04/30 00:05:35;;;;;;;40.45;30.20;;;4.40;99.90;;;;;;4922780;28;20052;-77
2023/04/30 00:08:03;;;;;;;33.55;29.38;;;4.40;99.90;;;;;;4940491;28;20051;-76
2023/04/30 00:10:29;;;;;;;36.35;29.52;;;4.30;99.90;;;;;;4940080;28;24563;-77
2023/04/30 00:12:56;;;;;;;36.40;29.13;;;4.20;99.90;;;;;;4953862;28;20591;-77
2023/04/30 00:15:22;;;;;;;36.58;30.35;;;4.20;99.90;;;;;;4955688;28;20055;-76
2023/04/30 00:17:49;;;;;;;42.88;29.10;;;4.10;99.90;;;;;;4941193;29;20044;-77
2023/04/30 00:20:16;;;;;;;39.20;29.35;;;4.10;99.90;;;;;;4954129;28;20546;-76
2023/04/30 00:22:43;;;;;;;41.17;28.83;;;4.00;99.90;;;;;;4927195;28;20642;-76
2023/04/30 00:25:10;;;;;;;37.22;28.83;;;3.90;99.90;;;;;;4940428;28;20042;-77
2023/04/30 00:27:36;;;;;;;38.20;28.90;;;3.90;99.90;;;;;;4940575;28;20048;-77
2023/04/30 00:30:07;;;;;;;39.10;29.00;;;3.80;99.90;;;;;;4956063;28;20048;-77
2023/04/30 00:32:34;;;;;;;42.30;28.95;;;4.00;99.90;;;;;;4940617;28;20055;-76
2023/04/30 00:35:01;;;;;;;40.42;29.88;;;4.10;99.90;;;;;;4937803;29;20109;-76
2023/04/30 00:37:28;;;;;;;36.17;27.27;;;3.90;99.90;;;;;;4939449;28;20086;-77
2023/04/30 00:39:55;;;;;;;39.80;27.42;;;3.80;99.90;;;;;;4937321;28;20054;-76
2023/04/30 00:42:22;;;;;;;39.97;27.65;;;3.60;99.90;;;;;;4940424;28;20055;-76
2023/04/30 00:44:50;;;;;;;41.10;28.98;;;3.60;99.90;;;;;;4942105;28;20531;-77
2023/04/30 00:47:17;;;;;;;45.08;28.73;;;3.50;99.90;;;;;;4937578;28;20048;-77
2023/04/30 00:49:44;;;;;;;43.83;28.98;;;3.70;99.90;;;;;;4956565;28;20053;-76
2023/04/30 00:52:11;;;;;;;43.63;28.88;;;3.70;99.90;;;;;;4941062;28;20074;-77
2023/04/30 00:54:38;;;;;;;46.45;28.52;;;3.60;99.90;;;;;;4956035;28;20050;-77
2023/04/30 00:57:08;;;;;;;44.40;28.63;;;3.60;99.90;;;;;;4938371;28;20051;-77
2023/04/30 00:59:35;;;;;;;43.08;28.63;;;3.70;99.90;;;;;;4923164;29;20070;-76
2023/04/30 01:02:02;;;;;;;44.67;29.58;;;3.60;99.90;;;;;;4939423;28;20078;-76
2023/04/30 01:04:29;;;;;;;45.20;26.98;;;3.50;99.90;;;;;;4955846;28;20047;-77
2023/04/30 01:06:56;;;;;;;40.72;27.45;;;3.40;99.90;;;;;;4953981;28;20039;-77
2023/04/30 01:09:22;;;;;;;39.30;27.50;;;3.40;99.90;;;;;;4943404;28;20043;-77
2023/04/30 01:12:12;;;;;;;47.20;28.55;;;3.40;99.90;;;;;;4939961;28;20039;-77
2023/04/30 01:15:03;;;;;;;41.13;26.85;;;3.20;99.90;;;;;;4952099;28;20047;-77
2023/04/30 01:17:40;;;;;;;39.67;27.95;;;3.10;99.90;;;;;;4937826;28;20051;-77
2023/04/30 01:20:10;;;;;;;41.40;28.08;;;3.10;99.90;;;;;;4936720;28;20051;-77
2023/04/30 01:23:00;;;;;;;39.72;27.50;;;3.00;99.90;;;;;;4923377;29;20051;-77
2023/04/30 01:25:33;;;;;;;34.38;26.65;;;3.00;99.90;;;;;;4938864;28;20055;-76
2023/04/30 01:28:15;;;;;;;40.53;28.42;;;3.00;99.90;;;;;;4955950;28;20138;-77
2023/04/30 01:30:45;;;;;;;46.38;27.67;;;3.10;99.90;;;;;;4951114;28;20126;-76
2023/04/30 01:33:13;;;;;;;36.30;25.83;;;3.10;99.90;;;;;;4956139;28;20090;-76
2023/04/30 01:35:48;;;;;;;45.63;29.33;;;3.00;99.90;;;;;;4941473;28;20043;-76
2023/04/30 01:38:45;;;;;;;39.00;27.20;;;2.90;99.90;;;;;;4954223;28;20083;-77
2023/04/30 01:41:29;;;;;;;46.85;28.10;;;2.90;99.90;;;;;;4945359;28;20464;-77
2023/04/30 01:44:23;;;;;;;51.40;28.42;;;2.90;99.90;;;;;;4956293;28;20051;-76
2023/04/30 01:47:01;;;;;;;56.53;29.48;;;3.00;99.90;;;;;;4955176;28;20596;-76
2023/04/30 01:49:36;;;;;;;48.20;27.85;;;2.90;99.90;;;;;;4955074;28;20043;-76
2023/04/30 01:52:16;;;;;;;45.83;27.17;;;2.80;99.90;;;;;;4921368;29;20039;-77
2023/04/30 01:55:04;;;;;;;47.47;27.40;;;2.70;99.90;;;;;;4936360;29;20146;-77
2023/04/30 01:57:41;;;;;;;57.63;28.42;;;2.70;99.90;;;;;;4952315;28;20063;-77
2023/04/30 02:00:10;;;;;;;51.70;28.77;;;2.80;99.90;;;;;;4951818;28;20050;-77
2023/04/30 02:02:40;;;;;;;48.88;27.35;;;2.80;99.90;;;;;;4955160;28;20043;-76
2023/04/30 02:05:07;;;;;;;39.25;25.75;;;2.80;99.90;;;;;;4939094;29;20452;-77
2023/04/30 02:07:43;;;;;;;40.47;27.20;;;2.70;99.90;;;;;;4938610;28;20039;-77
2023/04/30 02:10:13;;;;;;;39.85;26.67;;;2.70;99.90;;;;;;4951844;28;20127;-76
2023/04/30 02:12:40;;;;;;;44.38;27.25;;;2.60;99.90;;;;;;4955205;28;20682;-77
2023/04/30 02:15:07;;;;;;;39.92;25.30;;;2.60;99.90;;;;;;4953382;28;20050;-77
2023/04/30 02:17:34;;;;;;;41.13;26.38;;;2.70;99.90;;;;;;4924265;29;20039;-77
2023/04/30 02:20:02;;;;;;;42.25;26.92;;;2.60;99.90;;;;;;4937206;29;20546;-77
2023/04/30 02:22:29;;;;;;;37.22;26.45;;;2.70;99.90;;;;;;4938352;28;20134;-77
2023/04/30 02:24:56;;;;;;;43.58;27.58;;;2.50;99.90;;;;;;4954803;28;20078;-77
2023/04/30 02:27:24;;;;;;;49.03;29.17;;;2.50;99.90;;;;;;4949788;28;20137;-77
2023/04/30 02:29:52;;;;;;;40.00;28.10;;;2.50;99.90;;;;;;4921884;29;20134;-77
2023/04/30 02:32:19;;;;;;;40.80;29.30;;;2.50;99.90;;;;;;4937613;28;20071;-77
2023/04/30 02:34:46;;;;;;;39.30;28.50;;;2.50;99.90;;;;;;4936557;28;20051;-77
2023/04/30 02:37:13;;;;;;;46.38;30.85;;;2.50;99.90;;;;;;4952781;28;20053;-77
2023/04/30 02:39:40;;;;;;;41.75;28.65;;;2.50;99.90;;;;;;4939246;28;20058;-77
2023/04/30 02:42:07;;;;;;;34.15;28.55;;;2.60;99.90;;;;;;4920479;29;20070;-77
2023/04/30 02:44:34;;;;;;;36.70;29.27;;;2.50;99.90;;;;;;4938353;28;20127;-77
2023/04/30 02:47:01;;;;;;;44.80;29.83;;;2.50;99.90;;;;;;4955835;28;20098;-77
2023/04/30 02:49:28;;;;;;;51.80;31.88;;;2.40;99.90;;;;;;4949924;28;20766;-77
2023/04/30 02:51:55;;;;;;;41.25;30.27;;;2.40;99.90;;;;;;4954306;28;20035;-77
2023/04/30 02:54:22;;;;;;;49.85;30.67;;;2.30;99.90;;;;;;4935926;28;20055;-77
2023/04/30 02:56:48;;;;;;;43.72;30.15;;;2.50;99.90;;;;;;4954117;28;20043;-77
2023/04/30 02:59:15;;;;;;;50.90;31.20;;;2.50;99.90;;;;;;4937505;28;20051;-77
2023/04/30 03:01:42;;;;;;;49.22;30.67;;;2.60;99.90;;;;;;4953525;28;20055;-76
2023/04/30 03:04:09;;;;;;;45.33;31.52;;;2.60;99.90;;;;;;4940386;28;20131;-77
2023/04/30 03:06:36;;;;;;;45.80;28.90;;;2.50;99.90;;;;;;4926961;28;20615;-77
2023/04/30 03:09:02;;;;;;;48.50;30.30;;;2.30;99.90;;;;;;4941224;28;20047;-77
2023/04/30 03:11:29;;;;;;;41.50;28.48;;;2.20;99.90;;;;;;4947612;28;20040;-77
2023/04/30 03:13:56;;;;;;;43.30;29.70;;;2.20;99.90;;;;;;4943514;28;20055;-77
2023/04/30 03:16:23;;;;;;;46.65;30.95;;;2.00;99.90;;;;;;4952094;28;20057;-77
2023/04/30 03:18:50;;;;;;;41.67;29.55;;;2.00;99.90;;;;;;4937158;28;20476;-77
2023/04/30 03:21:17;;;;;;;38.50;28.45;;;2.00;99.90;;;;;;4952558;28;20047;-76
2023/04/30 03:23:45;;;;;;;42.35;30.30;;;2.00;99.90;;;;;;4926733;28;20051;-78
2023/04/30 03:26:11;;;;;;;41.53;29.85;;;1.90;99.90;;;;;;4938057;28;20135;-78
2023/04/30 03:28:38;;;;;;;46.97;31.33;;;1.90;99.90;;;;;;4937474;28;20051;-77
2023/04/30 03:31:05;;;;;;;47.00;30.33;;;1.90;99.90;;;;;;4925987;29;20047;-77
2023/04/30 03:33:32;;;;;;;47.60;33.20;;;1.90;99.90;;;;;;4953437;28;20143;-78
2023/04/30 03:35:58;;;;;;;44.50;30.92;;;1.90;99.90;;;;;;4940736;28;20057;-77
2023/04/30 03:38:25;;;;;;;49.72;31.00;;;1.90;99.90;;;;;;4952387;28;20054;-77
2023/04/30 03:40:52;;;;;;;47.05;30.15;;;1.80;99.90;;;;;;4939293;28;20047;-78
2023/04/30 03:43:19;;;;;;;41.40;28.95;;;1.80;99.90;;;;;;4956508;28;20071;-77
2023/04/30 03:45:45;;;;;;;40.85;29.95;;;1.80;99.90;;;;;;4956392;28;20047;-77
2023/04/30 03:48:12;;;;;;;53.42;32.53;;;1.70;99.90;;;;;;4954439;28;20047;-77
2023/04/30 03:50:39;;;;;;;61.97;33.42;;;1.70;99.90;;;;;;4928733;28;20279;-77
2023/04/30 03:53:06;;;;;;;57.63;31.85;;;1.70;99.90;;;;;;4940775;29;20588;-78
2023/04/30 03:55:34;;;;;;;52.72;30.73;;;1.80;99.90;;;;;;4957072;28;20589;-77
2023/04/30 03:58:01;;;;;;;52.13;30.33;;;1.80;99.90;;;;;;4928215;29;20051;-77
2023/04/30 04:00:28;;;;;;;59.80;31.92;;;1.80;99.90;;;;;;4954832;28;20496;-77
2023/04/30 04:02:57;;;;;;;47.22;30.35;;;1.90;99.90;;;;;;4941846;29;20067;-77
2023/04/30 04:05:23;;;;;;;46.67;29.63;;;1.80;99.90;;;;;;4941669;28;20082;-78
2023/04/30 04:07:50;;;;;;;46.03;29.27;;;1.70;99.90;;;;;;4941335;28;20043;-78
2023/04/30 04:10:17;;;;;;;50.03;28.42;;;1.60;99.90;;;;;;4953989;28;20733;-78
2023/04/30 04:12:45;;;;;;;56.00;32.72;;;1.80;99.90;;;;;;4922592;29;20047;-77
2023/04/30 04:15:12;;;;;;;48.47;30.77;;;1.80;99.90;;;;;;4931390;28;20051;-77
2023/04/30 04:17:38;;;;;;;54.53;31.95;;;1.70;99.90;;;;;;4944081;28;20055;-78
2023/04/30 04:20:07;;;;;;;56.13;31.15;;;1.70;99.90;;;;;;4941570;29;20705;-76
2023/04/30 04:22:35;;;;;;;43.20;31.13;;;1.60;99.90;;;;;;4937369;29;20047;-77
2023/04/30 04:25:01;;;;;;;50.15;33.03;;;1.50;99.90;;;;;;4941069;29;20051;-77
2023/04/30 04:27:30;;;;;;;49.22;30.20;;;1.50;99.90;;;;;;4939076;28;20613;-77
2023/04/30 04:29:57;;;;;;;47.10;31.85;;;1.50;99.90;;;;;;4957008;28;20039;-77
2023/04/30 04:32:24;;;;;;;49.33;31.67;;;1.50;99.90;;;;;;4956501;28;20046;-77
2023/04/30 04:34:53;;;;;;;46.25;31.67;;;1.50;99.90;;;;;;4944047;28;20138;-77
2023/04/30 04:37:19;;;;;;;55.67;32.70;;;1.50;99.90;;;;;;4939181;28;20058;-77
2023/04/30 04:39:46;;;;;;;53.28;32.85;;;1.50;99.90;;;;;;4934654;29;20055;-77
2023/04/30 04:42:19;;;;;;;51.40;32.53;;;1.60;99.90;;;;;;4956080;28;20051;-77
2023/04/30 04:44:46;;;;;;;51.45;33.03;;;1.50;99.90;;;;;;4942174;28;20061;-78
2023/04/30 04:47:13;;;;;;;107.38;41.65;;;1.50;99.90;;;;;;4955309;28;20139;-77
2023/04/30 04:49:40;;;;;;;52.83;33.13;;;1.50;99.90;;;;;;4939032;28;20073;-77
2023/04/30 04:52:07;;;;;;;44.78;31.50;;;1.60;99.90;;;;;;4939858;28;20098;-77
2023/04/30 04:54:34;;;;;;;56.83;34.25;;;1.80;99.90;;;;;;4940911;29;20038;-77
2023/04/30 04:57:01;;;;;;;81.63;38.20;;;1.70;99.90;;;;;;4955461;28;20067;-77
2023/04/30 04:59:28;;;;;;;60.85;35.78;;;1.80;99.90;;;;;;4939116;28;20828;-77
2023/04/30 05:01:56;;;;;;;54.60;35.03;;;1.90;99.90;;;;;;4940311;28;20058;-78
2023/04/30 05:04:23;;;;;;;50.88;35.00;;;2.00;99.90;;;;;;4955044;28;20043;-77
2023/04/30 05:06:49;;;;;;;63.42;36.05;;;2.10;99.90;;;;;;4939060;28;20043;-77
2023/04/30 05:09:16;;;;;;;64.28;38.25;;;2.20;99.90;;;;;;4954186;28;20051;-77
2023/04/30 05:11:45;;;;;;;65.38;38.05;;;2.30;99.90;;;;;;4940059;28;20047;-77
2023/04/30 05:14:11;;;;;;;76.53;37.45;;;2.30;99.90;;;;;;4937041;29;20073;-76
2023/04/30 05:16:38;;;;;;;62.05;34.92;;;2.50;99.90;;;;;;4936861;28;20051;-77
2023/04/30 05:19:05;;;;;;;77.60;38.33;;;2.50;99.90;;;;;;4954775;28;20047;-77
2023/04/30 05:21:32;;;;;;;62.55;34.83;;;2.60;99.90;;;;;;4939745;28;20047;-77
2023/04/30 05:23:59;;;;;;;57.67;34.35;;;2.60;99.90;;;;;;4943588;28;20047;-77
2023/04/30 05:26:26;;;;;;;58.75;35.35;;;2.60;99.90;;;;;;4954713;28;20143;-77
2023/04/30 05:28:52;;;;;;;57.75;33.88;;;2.70;99.90;;;;;;4954494;28;20082;-77
2023/04/30 05:31:19;;;;;;;61.58;35.97;;;2.70;99.90;;;;;;4952431;28;20043;-77
2023/04/30 05:33:47;;;;;;;59.58;36.15;;;2.90;99.90;;;;;;4940553;29;20047;-77
2023/04/30 05:36:13;;;;;;;58.13;35.60;;;3.10;99.90;;;;;;4951946;28;20042;-77
2023/04/30 05:38:40;;;;;;;58.42;34.38;;;3.20;99.90;;;;;;4938702;28;20055;-76
2023/04/30 05:41:12;;;;;;;76.45;37.30;;;3.30;99.90;;;;;;4941510;28;20077;-77
2023/04/30 05:43:39;;;;;;;63.05;34.15;;;3.40;99.90;;;;;;4953768;28;20623;-76
2023/04/30 05:46:06;;;;;;;65.82;37.05;;;3.60;99.90;;;;;;4939563;29;20057;-77
2023/04/30 05:48:32;;;;;;;64.72;35.72;;;3.60;99.90;;;;;;4937753;29;20039;-77
2023/04/30 05:50:59;;;;;;;59.08;33.83;;;3.60;99.90;;;;;;4955115;28;20039;-77
2023/04/30 05:53:26;;;;;;;56.08;32.58;;;3.70;99.90;;;;;;4955104;28;20645;-77
2023/04/30 05:55:53;;;;;;;51.53;31.73;;;3.80;99.90;;;;;;4937649;28;20070;-76
2023/04/30 05:58:19;;;;;;;43.55;30.92;;;4.10;99.90;;;;;;4939439;28;20047;-76
2023/04/30 06:00:49;;;;;;;31.05;21.98;;;4.20;99.90;;;;;;4938320;28;20102;-75
2023/04/30 06:03:17;;;;;;;27.13;20.45;;;4.50;99.90;;;;;;4952775;28;20043;-75
2023/04/30 06:05:44;;;;;;;24.80;21.27;;;4.80;99.90;;;;;;4937860;28;20102;-76
2023/04/30 06:08:11;;;;;;;23.52;19.45;;;4.90;99.90;;;;;;4952892;28;20043;-75
2023/04/30 06:10:38;;;;;;;17.48;11.68;;;5.20;99.90;;;;;;4953832;28;20051;-76
2023/04/30 06:13:05;;;;;;;15.18;9.75;;;5.40;99.90;;;;;;4955928;28;20708;-74
2023/04/30 06:15:32;;;;;;;20.10;9.70;;;5.60;99.90;;;;;;4937086;28;20073;-76
2023/04/30 06:17:59;;;;;;;13.15;9.38;;;5.80;99.90;;;;;;4954118;28;20044;-74
2023/04/30 06:20:28;;;;;;;19.88;10.43;;;6.00;99.90;;;;;;4921454;28;20070;-74
2023/04/30 06:22:55;;;;;;;19.23;13.30;;;6.30;99.90;;;;;;4938695;28;20050;-75
2023/04/30 06:25:22;;;;;;;18.20;16.35;;;6.50;99.90;;;;;;4937786;28;20130;-76
2023/04/30 06:27:50;;;;;;;22.85;18.88;;;6.80;99.90;;;;;;4953429;28;20070;-76
2023/04/30 06:30:17;;;;;;;23.65;21.30;;;6.90;99.90;;;;;;4936734;28;20054;-75
2023/04/30 06:32:43;;;;;;;23.95;21.50;;;7.10;99.90;;;;;;4939537;29;20043;-75
2023/04/30 06:35:10;;;;;;;24.45;22.17;;;7.20;99.90;;;;;;4938538;28;20051;-77
2023/04/30 06:37:37;;;;;;;25.10;22.52;;;7.40;99.90;;;;;;4953253;28;20043;-76
2023/04/30 06:40:05;;;;;;;26.08;23.50;;;7.40;99.90;;;;;;4954732;28;20066;-75
2023/04/30 06:42:35;;;;;;;24.63;22.80;;;7.60;99.90;;;;;;4935970;28;20634;-74
2023/04/30 06:45:02;;;;;;;25.33;22.90;;;7.40;99.90;;;;;;4936304;29;20119;-76
2023/04/30 06:47:33;;;;;;;28.02;25.27;;;7.60;99.90;;;;;;4935881;28;20138;-76
2023/04/30 06:50:00;;;;;;;27.33;25.50;;;7.80;99.90;;;;;;4937208;28;20142;-76
2023/04/30 06:52:27;;;;;;;28.55;26.77;;;8.20;99.90;;;;;;4939639;28;20051;-76
2023/04/30 06:54:54;;;;;;;28.48;26.67;;;8.50;99.90;;;;;;4942187;28;20655;-74
2023/04/30 06:57:21;;;;;;;27.73;26.05;;;8.20;99.90;;;;;;4953240;28;20053;-76
2023/04/30 06:59:47;;;;;;;27.60;25.55;;;7.90;99.90;;;;;;4939185;28;20042;-74
2023/04/30 07:02:15;;;;;;;28.25;25.90;;;8.00;99.90;;;;;;4932967;28;20044;-75
2023/04/30 07:04:42;;;;;;;28.58;25.85;;;8.40;99.90;;;;;;4952782;28;20459;-75
2023/04/30 07:07:09;;;;;;;28.48;26.10;;;8.20;99.90;;;;;;4939017;28;20700;-75
2023/04/30 07:09:35;;;;;;;28.42;26.05;;;8.20;99.90;;;;;;4953576;28;20051;-76
2023/04/30 07:12:02;;;;;;;29.00;26.55;;;8.60;99.90;;;;;;4938307;28;20074;-76
2023/04/30 07:14:29;;;;;;;29.55;27.50;;;9.10;99.90;;;;;;4952958;28;20141;-76
2023/04/30 07:16:56;;;;;;;29.33;27.27;;;8.90;99.90;;;;;;4941608;28;20128;-74
2023/04/30 07:19:24;;;;;;;31.77;29.30;;;8.90;99.90;;;;;;4925694;28;20050;-74
2023/04/30 07:21:50;;;;;;;31.42;28.83;;;9.00;99.90;;;;;;4956880;28;20050;-75
2023/04/30 07:24:17;;;;;;;29.83;27.55;;;9.50;99.90;;;;;;4943434;28;20134;-74
2023/04/30 07:26:44;;;;;;;30.98;28.75;;;9.60;99.90;;;;;;4941541;28;20440;-75
2023/04/30 07:29:11;;;;;;;30.95;28.73;;;9.80;99.90;;;;;;4957855;28;20488;-74
2023/04/30 07:31:37;;;;;;;32.35;29.63;;;9.80;99.90;;;;;;4959330;28;20178;-76
2023/04/30 07:34:04;;;;;;;31.60;29.38;;;9.90;99.90;;;;;;4941746;28;20047;-75
2023/04/30 07:36:31;;;;;;;31.63;29.60;;;10.40;99.90;;;;;;4954576;28;20055;-75
2023/04/30 07:38:58;;;;;;;32.63;30.35;;;9.60;99.90;;;;;;4942130;29;20512;-75
2023/04/30 07:41:25;;;;;;;32.25;30.00;;;9.50;99.90;;;;;;4953502;28;20043;-75
2023/04/30 07:43:52;;;;;;;37.30;34.17;;;9.00;99.90;;;;;;4939889;28;20082;-77
2023/04/30 07:46:18;;;;;;;34.28;31.80;;;9.30;99.90;;;;;;4928291;28;20134;-73
2023/04/30 07:48:45;;;;;;;34.72;32.30;;;9.60;99.90;;;;;;4942037;28;20035;-74
2023/04/30 07:51:12;;;;;;;33.28;30.48;;;9.40;99.90;;;;;;4943100;28;20043;-75
2023/04/30 07:53:38;;;;;;;33.10;30.92;;;9.90;99.90;;;;;;4939703;28;20055;-77
2023/04/30 07:56:06;;;;;;;35.50;33.03;;;10.90;99.90;;;;;;4941507;28;20075;-74
2023/04/30 07:58:33;;;;;;;33.45;31.05;;;10.30;99.90;;;;;;4954569;28;20051;-76
2023/04/30 08:00:59;;;;;;;36.38;33.40;;;9.80;99.90;;;;;;4939266;28;20051;-74
2023/04/30 08:03:26;;;;;;;52.50;46.90;;;10.20;99.90;;;;;;4941568;29;20047;-76
2023/04/30 08:05:53;;;;;;;34.60;32.28;;;11.10;99.90;;;;;;4939837;28;20058;-75
2023/04/30 08:08:20;;;;;;;44.30;40.17;;;10.20;99.90;;;;;;4952310;28;20071;-76
2023/04/30 08:10:47;;;;;;;59.15;49.60;;;10.00;99.90;;;;;;4941205;28;20042;-73
2023/04/30 08:13:13;;;;;;;76.07;61.58;;;9.70;99.90;;;;;;4941240;28;20118;-75
2023/04/30 08:15:41;;;;;;;38.10;35.03;;;9.50;99.90;;;;;;4943565;28;20039;-75
2023/04/30 08:18:08;;;;;;;34.47;31.65;;;9.80;99.90;;;;;;4940972;29;20131;-74
2023/04/30 08:20:35;;;;;;;34.05;31.88;;;10.50;99.90;;;;;;4941514;28;20166;-74
2023/04/30 08:23:04;;;;;;;47.70;43.70;;;11.40;99.90;;;;;;4925281;29;20050;-74
2023/04/30 08:25:31;;;;;;;34.70;32.22;;;11.60;99.90;;;;;;4954945;28;20558;-74
2023/04/30 08:27:58;;;;;;;32.75;30.33;;;11.80;99.90;;;;;;4929734;28;20051;-75
2023/04/30 08:30:25;;;;;;;33.55;31.10;;;12.00;99.90;;;;;;4952387;28;20051;-75
2023/04/30 08:32:52;;;;;;;34.13;31.92;;;12.20;99.90;;;;;;4939704;28;20067;-74
2023/04/30 08:35:22;;;;;;;34.40;31.38;;;12.30;99.90;;;;;;4944727;28;20437;-74
2023/04/30 08:37:49;;;;;;;33.42;31.33;;;12.50;99.90;;;;;;4940011;28;20062;-75
2023/04/30 08:40:16;;;;;;;34.53;32.10;;;12.50;99.90;;;;;;4936580;28;20059;-73
2023/04/30 08:42:48;;;;;;;32.67;30.45;;;12.00;99.90;;;;;;4942588;28;20031;-74
2023/04/30 08:45:15;;;;;;;34.53;32.17;;;12.50;99.90;;;;;;4953332;28;20039;-76
2023/04/30 08:47:43;;;;;;;36.08;33.53;;;13.30;99.90;;;;;;4937828;28;20043;-74
2023/04/30 08:50:10;;;;;;;35.05;32.78;;;13.50;99.90;;;;;;4940630;28;20055;-76
2023/04/30 08:52:39;;;;;;;35.47;33.00;;;13.30;99.90;;;;;;4941302;28;20047;-77
2023/04/30 08:55:09;;;;;;;35.88;33.25;;;12.60;99.90;;;;;;4957143;28;20051;-77
2023/04/30 08:57:37;;;;;;;34.22;31.42;;;12.20;99.90;;;;;;4937901;28;20078;-75
2023/04/30 09:00:05;;;;;;;37.35;34.75;;;13.00;99.90;;;;;;4940426;29;20035;-74
2023/04/30 09:02:33;;;;;;;35.88;33.58;;;13.60;99.90;;;;;;4955033;28;20133;-74
2023/04/30 09:05:00;;;;;;;35.08;32.83;;;14.00;99.90;;;;;;4939287;29;20051;-74
2023/04/30 09:07:32;;;;;;;37.42;35.08;;;14.60;99.90;;;;;;4938718;28;20046;-74
2023/04/30 09:09:59;;;;;;;38.10;35.33;;;14.70;99.90;;;;;;4939750;29;20051;-75
2023/04/30 09:12:26;;;;;;;37.47;34.95;;;15.00;99.90;;;;;;4954961;28;20068;-74
2023/04/30 09:15:04;;;;;;;39.75;36.90;;;15.00;99.90;;;;;;4939686;29;20057;-73
2023/04/30 09:17:31;;;;;;;39.20;37.00;;;14.80;99.90;;;;;;4940117;28;20058;-73
2023/04/30 09:20:12;;;;;;;36.70;34.50;;;14.80;99.90;;;;;;4939419;28;20626;-75
2023/04/30 09:22:41;;;;;;;39.97;37.55;;;14.30;99.90;;;;;;4953879;28;20134;-72
2023/04/30 09:25:10;;;;;;;38.60;36.25;;;14.50;99.90;;;;;;4939853;29;20081;-75
2023/04/30 09:27:36;;;;;;;38.60;36.08;;;14.10;99.90;;;;;;4954450;28;20639;-74
2023/04/30 09:30:04;;;;;;;40.55;37.92;;;14.60;99.90;;;;;;4940350;28;20036;-75
2023/04/30 09:32:31;;;;;;;40.10;37.42;;;14.60;99.90;;;;;;4939501;28;20051;-75
2023/04/30 09:34:58;;;;;;;39.42;37.05;;;14.40;99.90;;;;;;4939924;28;20059;-75
2023/04/30 09:37:38;;;;;;;39.58;37.15;;;15.00;99.90;;;;;;4938937;28;20051;-75
2023/04/30 09:40:05;;;;;;;39.05;36.42;;;15.50;99.90;;;;;;4939757;28;20138;-75
2023/04/30 09:42:32;;;;;;;40.88;38.22;;;15.50;99.90;;;;;;4938875;28;20039;-74
2023/04/30 09:44:59;;;;;;;37.85;35.25;;;13.80;99.90;;;;;;4938700;29;20595;-75
2023/04/30 09:47:30;;;;;;;42.35;39.75;;;13.40;99.90;;;;;;4941342;28;20042;-75
2023/04/30 09:49:59;;;;;;;40.30;37.78;;;13.40;99.90;;;;;;4938532;28;20066;-75
2023/04/30 09:52:25;;;;;;;38.88;36.42;;;14.00;99.90;;;;;;4953856;28;20051;-75
2023/04/30 09:54:52;;;;;;;40.60;37.78;;;14.10;99.90;;;;;;4940730;28;20515;-75
2023/04/30 09:57:22;;;;;;;32.00;29.88;;;14.70;99.90;;;;;;4940541;28;20791;-75
2023/04/30 09:59:51;;;;;;;37.42;34.85;;;15.00;99.90;;;;;;4938052;28;20051;-75
2023/04/30 10:02:22;;;;;;;33.35;31.50;;;14.90;99.90;;;;;;4933473;28;20047;-74
2023/04/30 10:04:56;;;;;;;33.03;31.05;;;14.70;99.90;;;;;;4937941;29;20492;-75
2023/04/30 10:07:28;;;;;;;33.65;31.63;;;14.40;99.90;;;;;;4936660;28;20074;-75
2023/04/30 10:10:06;;;;;;;34.85;32.83;;;14.40;99.90;;;;;;4943888;28;20130;-75
2023/04/30 10:12:55;;;;;;;42.38;39.40;;;13.80;99.90;;;;;;4951090;28;20117;-75
2023/04/30 10:15:27;;;;;;;40.15;37.75;;;13.90;99.90;;;;;;4944311;28;20085;-75
2023/04/30 10:18:01;;;;;;;37.05;34.72;;;13.90;99.90;;;;;;4938975;28;20054;-75
2023/04/30 10:20:30;;;;;;;41.42;38.97;;;14.60;99.90;;;;;;4953496;28;20601;-74
2023/04/30 10:22:57;;;;;;;41.85;39.17;;;14.80;99.90;;;;;;4954300;28;20043;-74
2023/04/30 10:25:25;;;;;;;38.15;35.97;;;14.90;99.90;;;;;;4940222;28;20047;-75
2023/04/30 10:27:52;;;;;;;40.85;38.35;;;15.10;99.90;;;;;;4936287;28;20671;-75
2023/04/30 10:30:21;;;;;;;42.03;39.08;;;15.50;99.90;;;;;;4954749;28;20051;-74
2023/04/30 10:33:19;;;;;;;40.03;37.53;;;15.20;99.90;;;;;;4940646;28;20299;-75
2023/04/30 10:35:46;;;;;;;39.03;37.03;;;15.20;99.90;;;;;;4937350;28;21065;-75
2023/04/30 10:38:24;;;;;;;40.60;38.40;;;14.90;99.90;;;;;;4953529;28;20043;-74
2023/04/30 10:40:56;;;;;;;40.55;38.45;;;15.00;99.90;;;;;;4937132;28;20137;-76
2023/04/30 10:43:28;;;;;;;43.05;40.30;;;15.50;99.90;;;;;;4934858;29;20048;-75
2023/04/30 10:45:57;;;;;;;41.50;38.90;;;15.80;99.90;;;;;;4954322;28;20049;-75
2023/04/30 10:48:25;;;;;;;40.33;38.13;;;15.80;99.90;;;;;;4939538;28;20408;-75
2023/04/30 10:50:55;;;;;;;41.28;39.08;;;15.90;99.90;;;;;;4942408;28;20554;-75
2023/04/30 10:53:24;;;;;;;43.03;39.85;;;16.00;99.90;;;;;;4946255;28;20114;-75
2023/04/30 10:56:05;;;;;;;41.95;39.63;;;16.30;99.90;;;;;;4936208;28;20520;-75
2023/04/30 10:58:37;;;;;;;40.65;38.17;;;15.60;99.90;;;;;;4948913;28;20051;-75
2023/04/30 11:01:09;;;;;;;39.45;37.42;;;16.10;99.90;;;;;;4938691;28;20142;-75
2023/04/30 11:03:37;;;;;;;39.13;37.13;;;16.40;99.90;;;;;;4938432;28;20051;-75
2023/04/30 11:06:18;;;;;;;40.58;38.40;;;16.60;99.90;;;;;;4953120;28;20077;-75
2023/04/30 11:08:46;;;;;;;41.45;39.15;;;16.70;99.90;;;;;;4937443;28;20134;-75
2023/04/30 11:11:22;;;;;;;40.80;38.70;;;16.90;99.90;;;;;;4939245;28;20048;-75
2023/04/30 11:13:59;;;;;;;42.55;40.10;;;17.10;99.90;;;;;;4944314;28;20146;-75
2023/04/30 11:16:30;;;;;;;42.38;40.08;;;16.50;99.90;;;;;;4948163;28;20686;-75
2023/04/30 11:19:09;;;;;;;42.72;40.22;;;15.90;99.90;;;;;;4946304;28;20177;-75
2023/04/30 11:21:41;;;;;;;42.15;39.90;;;16.00;99.90;;;;;;4936435;28;20426;-75
2023/04/30 11:24:08;;;;;;;39.85;37.85;;;16.40;99.90;;;;;;4937504;28;20043;-75
2023/04/30 11:27:04;;;;;;;42.40;40.22;;;16.30;99.90;;;;;;4936938;28;20122;-75
2023/04/30 11:29:31;;;;;;;40.83;38.78;;;15.10;99.90;;;;;;4936245;29;20704;-75
2023/04/30 11:32:03;;;;;;;40.53;38.22;;;15.50;99.90;;;;;;4938662;28;20457;-75
2023/04/30 11:34:30;;;;;;;43.28;40.90;;;15.70;99.90;;;;;;4935426;29;20047;-75
2023/04/30 11:36:59;;;;;;;43.88;41.72;;;15.50;99.90;;;;;;4937155;28;20043;-75
2023/04/30 11:39:28;;;;;;;43.30;41.00;;;15.20;99.90;;;;;;4937861;28;20049;-74
2023/04/30 11:41:55;;;;;;;43.45;41.15;;;15.30;99.90;;;;;;4936762;28;20109;-75
2023/04/30 11:44:26;;;;;;;41.47;39.33;;;15.50;99.90;;;;;;4937847;28;20131;-75
2023/04/30 11:46:53;;;;;;;40.92;38.70;;;15.60;99.90;;;;;;4931498;29;20546;-76
2023/04/30 11:49:20;;;;;;;42.85;40.75;;;15.90;99.90;;;;;;4937148;28;20050;-75
2023/04/30 11:51:49;;;;;;;39.10;37.00;;;16.20;99.90;;;;;;4933877;28;20043;-76
2023/04/30 11:54:17;;;;;;;41.28;38.97;;;16.10;99.90;;;;;;4936588;29;20054;-76
2023/04/30 11:56:48;;;;;;;42.33;40.13;;;16.30;99.90;;;;;;4949979;28;20714;-75
2023/04/30 11:59:16;;;;;;;42.70;40.42;;;16.30;99.90;;;;;;4940306;28;20047;-75
2023/04/30 12:01:43;;;;;;;43.38;41.17;;;16.60;99.90;;;;;;4934930;28;20044;-74
2023/04/30 12:04:09;;;;;;;43.22;40.95;;;15.50;99.90;;;;;;4939454;29;20051;-75
2023/04/30 12:06:36;;;;;;;42.67;40.45;;;15.30;99.90;;;;;;4940262;28;20161;-75
2023/04/30 12:09:07;;;;;;;41.47;39.38;;;16.00;99.90;;;;;;4941140;28;20101;-74
2023/04/30 12:11:34;;;;;;;44.88;42.67;;;15.90;99.90;;;;;;4938469;28;20047;-75
2023/04/30 12:14:03;;;;;;;43.25;40.95;;;15.50;99.90;;;;;;4941025;29;20047;-75
2023/04/30 12:16:49;;;;;;;42.15;39.72;;;15.10;99.90;;;;;;4941152;28;20051;-74
2023/04/30 12:19:18;;;;;;;43.53;40.90;;;15.70;99.90;;;;;;4942278;28;20059;-74
2023/04/30 12:21:47;;;;;;;42.72;40.22;;;15.40;99.90;;;;;;4938910;28;20047;-74
2023/04/30 12:24:15;;;;;;;44.83;42.42;;;15.30;99.90;;;;;;4954873;28;20051;-74
2023/04/30 12:26:43;;;;;;;44.47;42.25;;;15.50;99.90;;;;;;4933115;28;20134;-75
2023/04/30 12:29:14;;;;;;;44.53;42.13;;;15.40;99.90;;;;;;4940136;28;20075;-74
2023/04/30 12:31:42;;;;;;;44.47;42.17;;;14.70;99.90;;;;;;4937453;28;20035;-74
2023/04/30 12:34:13;;;;;;;43.60;41.15;;;14.80;99.90;;;;;;4939732;28;21707;-74
2023/04/30 12:36:43;;;;;;;43.95;41.45;;;15.30;99.90;;;;;;4935011;28;20047;-75
2023/04/30 12:39:11;;;;;;;43.30;41.10;;;15.80;99.90;;;;;;4939857;29;20652;-75
2023/04/30 12:41:43;;;;;;;43.60;41.15;;;15.20;99.90;;;;;;4937989;28;20135;-74